sensor_id;sensor_type;location;lat;lon;timestamp;temperature;humidity
60495;DHT22;46342;49.046;11.920;2022-12-24T00:00:21;13.10;77.80
60495;DHT22;46342;49.046;11.920;2022-12-24T00:02:47;13.10;77.80
60495;DHT22;46342;49.046;11.920;2022-12-24T00:05:12;13.10;77.80
60495;DHT22;46342;49.046;11.920;2022-12-24T00:07:38;13.10;77.80
60495;DHT22;46342;49.046;11.920;2022-12-24T00:10:04;13.10;77.80
60495;DHT22;46342;49.046;11.920;2022-12-24T00:12:30;13.10;77.80
60495;DHT22;46342;49.046;11.920;2022-12-24T00:14:56;13.10;77.80
60495;DHT22;46342;49.046;11.920;2022-12-24T00:17:21;13.10;77.80
60495;DHT22;46342;49.046;11.920;2022-12-24T00:19:47;13.10;77.70
60495;DHT22;46342;49.046;11.920;2022-12-24T00:22:12;13.10;77.50
60495;DHT22;46342;49.046;11.920;2022-12-24T00:24:38;13.00;77.20
60495;DHT22;46342;49.046;11.920;2022-12-24T00:27:04;13.10;77.10
60495;DHT22;46342;49.046;11.920;2022-12-24T00:29:30;13.00;76.90
60495;DHT22;46342;49.046;11.920;2022-12-24T00:31:57;13.00;76.90
60495;DHT22;46342;49.046;11.920;2022-12-24T00:34:23;13.00;76.70
60495;DHT22;46342;49.046;11.920;2022-12-24T00:36:49;12.90;76.60
60495;DHT22;46342;49.046;11.920;2022-12-24T00:39:15;12.90;76.60
60495;DHT22;46342;49.046;11.920;2022-12-24T00:41:40;12.90;76.70
60495;DHT22;46342;49.046;11.920;2022-12-24T00:44:06;12.90;76.60
60495;DHT22;46342;49.046;11.920;2022-12-24T00:46:34;12.90;76.60
60495;DHT22;46342;49.046;11.920;2022-12-24T00:49:01;12.90;76.20
60495;DHT22;46342;49.046;11.920;2022-12-24T00:51:27;12.80;76.40
60495;DHT22;46342;49.046;11.920;2022-12-24T00:53:52;12.80;77.40
60495;DHT22;46342;49.046;11.920;2022-12-24T00:56:18;12.70;76.30
60495;DHT22;46342;49.046;11.920;2022-12-24T00:58:44;12.70;77.30
60495;DHT22;46342;49.046;11.920;2022-12-24T01:01:10;12.70;76.40
60495;DHT22;46342;49.046;11.920;2022-12-24T01:03:36;12.70;76.40
60495;DHT22;46342;49.046;11.920;2022-12-24T01:06:07;12.70;76.30
60495;DHT22;46342;49.046;11.920;2022-12-24T01:08:34;12.70;76.10
60495;DHT22;46342;49.046;11.920;2022-12-24T01:11:01;12.60;76.20
60495;DHT22;46342;49.046;11.920;2022-12-24T01:13:27;12.60;76.10
60495;DHT22;46342;49.046;11.920;2022-12-24T01:15:52;12.60;76.10
60495;DHT22;46342;49.046;11.920;2022-12-24T01:18:18;12.60;76.10
60495;DHT22;46342;49.046;11.920;2022-12-24T01:20:44;12.60;76.20
60495;DHT22;46342;49.046;11.920;2022-12-24T01:23:10;12.50;76.00
60495;DHT22;46342;49.046;11.920;2022-12-24T01:25:38;12.50;76.00
60495;DHT22;46342;49.046;11.920;2022-12-24T01:28:04;12.50;76.00
60495;DHT22;46342;49.046;11.920;2022-12-24T01:30:30;12.50;75.90
60495;DHT22;46342;49.046;11.920;2022-12-24T01:32:56;12.40;75.90
60495;DHT22;46342;49.046;11.920;2022-12-24T01:35:22;12.40;75.90
60495;DHT22;46342;49.046;11.920;2022-12-24T01:37:47;12.40;75.90
60495;DHT22;46342;49.046;11.920;2022-12-24T01:40:15;12.40;75.90
60495;DHT22;46342;49.046;11.920;2022-12-24T01:42:59;12.30;75.80
60495;DHT22;46342;49.046;11.920;2022-12-24T01:45:45;12.30;75.90
60495;DHT22;46342;49.046;11.920;2022-12-24T01:48:39;12.30;76.00
60495;DHT22;46342;49.046;11.920;2022-12-24T01:51:10;12.30;75.70
60495;DHT22;46342;49.046;11.920;2022-12-24T01:53:41;12.30;75.90
60495;DHT22;46342;49.046;11.920;2022-12-24T01:56:08;12.30;75.70
60495;DHT22;46342;49.046;11.920;2022-12-24T01:58:36;12.30;75.70
60495;DHT22;46342;49.046;11.920;2022-12-24T02:01:02;12.20;75.50
60495;DHT22;46342;49.046;11.920;2022-12-24T02:03:28;12.20;75.40
60495;DHT22;46342;49.046;11.920;2022-12-24T02:05:56;12.20;75.20
60495;DHT22;46342;49.046;11.920;2022-12-24T02:08:22;12.10;75.00
60495;DHT22;46342;49.046;11.920;2022-12-24T02:10:48;12.20;74.70
60495;DHT22;46342;49.046;11.920;2022-12-24T02:13:16;12.10;75.10
60495;DHT22;46342;49.046;11.920;2022-12-24T02:18:49;12.10;74.70
60495;DHT22;46342;49.046;11.920;2022-12-24T02:21:29;12.10;76.00
60495;DHT22;46342;49.046;11.920;2022-12-24T02:24:18;12.00;75.10
60495;DHT22;46342;49.046;11.920;2022-12-24T02:33:01;12.00;75.00
60495;DHT22;46342;49.046;11.920;2022-12-24T02:35:36;12.00;75.00
60495;DHT22;46342;49.046;11.920;2022-12-24T02:38:13;11.90;75.10
60495;DHT22;46342;49.046;11.920;2022-12-24T02:40:52;12.00;75.00
60495;DHT22;46342;49.046;11.920;2022-12-24T02:43:23;11.90;74.80
60495;DHT22;46342;49.046;11.920;2022-12-24T02:46:01;11.90;75.10
60495;DHT22;46342;49.046;11.920;2022-12-24T02:48:29;11.90;74.90
60495;DHT22;46342;49.046;11.920;2022-12-24T02:51:08;11.90;75.30
60495;DHT22;46342;49.046;11.920;2022-12-24T02:53:34;11.90;75.10
60495;DHT22;46342;49.046;11.920;2022-12-24T02:56:23;11.80;75.40
60495;DHT22;46342;49.046;11.920;2022-12-24T03:02:15;11.80;75.00
60495;DHT22;46342;49.046;11.920;2022-12-24T03:05:16;11.80;74.90
60495;DHT22;46342;49.046;11.920;2022-12-24T03:08:08;11.80;75.00
60495;DHT22;46342;49.046;11.920;2022-12-24T03:13:18;11.80;75.00
60495;DHT22;46342;49.046;11.920;2022-12-24T03:15:46;11.70;75.10
60495;DHT22;46342;49.046;11.920;2022-12-24T03:18:15;11.70;75.10
60495;DHT22;46342;49.046;11.920;2022-12-24T03:20:45;11.80;75.40
60495;DHT22;46342;49.046;11.920;2022-12-24T03:23:13;11.70;75.30
60495;DHT22;46342;49.046;11.920;2022-12-24T03:25:41;11.70;75.40
60495;DHT22;46342;49.046;11.920;2022-12-24T03:28:09;11.70;75.50
60495;DHT22;46342;49.046;11.920;2022-12-24T03:30:39;11.70;75.50
60495;DHT22;46342;49.046;11.920;2022-12-24T03:33:05;11.60;75.40
60495;DHT22;46342;49.046;11.920;2022-12-24T03:35:31;11.60;75.50
60495;DHT22;46342;49.046;11.920;2022-12-24T03:37:56;11.60;75.40
60495;DHT22;46342;49.046;11.920;2022-12-24T03:40:22;11.60;76.30
60495;DHT22;46342;49.046;11.920;2022-12-24T03:42:47;11.60;75.50
60495;DHT22;46342;49.046;11.920;2022-12-24T03:45:13;11.60;75.50
60495;DHT22;46342;49.046;11.920;2022-12-24T03:47:38;11.60;75.50
60495;DHT22;46342;49.046;11.920;2022-12-24T03:50:05;11.60;75.50
60495;DHT22;46342;49.046;11.920;2022-12-24T03:52:30;11.60;75.70
60495;DHT22;46342;49.046;11.920;2022-12-24T03:54:56;11.60;75.70
60495;DHT22;46342;49.046;11.920;2022-12-24T03:57:21;11.60;75.70
60495;DHT22;46342;49.046;11.920;2022-12-24T03:59:47;11.60;75.70
60495;DHT22;46342;49.046;11.920;2022-12-24T04:02:13;11.60;75.90
60495;DHT22;46342;49.046;11.920;2022-12-24T04:04:38;11.60;76.70
60495;DHT22;46342;49.046;11.920;2022-12-24T04:07:04;11.60;75.90
60495;DHT22;46342;49.046;11.920;2022-12-24T04:09:30;11.60;75.90
60495;DHT22;46342;49.046;11.920;2022-12-24T04:11:56;11.60;75.80
60495;DHT22;46342;49.046;11.920;2022-12-24T04:14:22;11.60;75.90
60495;DHT22;46342;49.046;11.920;2022-12-24T04:16:47;11.60;75.90
60495;DHT22;46342;49.046;11.920;2022-12-24T04:19:13;11.60;75.90
60495;DHT22;46342;49.046;11.920;2022-12-24T04:21:39;11.60;75.90
60495;DHT22;46342;49.046;11.920;2022-12-24T04:24:04;11.60;75.90
60495;DHT22;46342;49.046;11.920;2022-12-24T04:26:30;11.60;75.90
60495;DHT22;46342;49.046;11.920;2022-12-24T04:28:55;11.60;75.90
60495;DHT22;46342;49.046;11.920;2022-12-24T04:31:21;11.60;75.90
60495;DHT22;46342;49.046;11.920;2022-12-24T04:33:47;11.60;75.90
60495;DHT22;46342;49.046;11.920;2022-12-24T04:36:16;11.60;75.80
60495;DHT22;46342;49.046;11.920;2022-12-24T04:38:43;11.60;75.80
60495;DHT22;46342;49.046;11.920;2022-12-24T04:41:14;11.60;75.80
60495;DHT22;46342;49.046;11.920;2022-12-24T04:43:41;11.60;75.80
60495;DHT22;46342;49.046;11.920;2022-12-24T04:46:09;11.60;75.80
60495;DHT22;46342;49.046;11.920;2022-12-24T04:48:35;11.60;76.60
60495;DHT22;46342;49.046;11.920;2022-12-24T04:51:02;11.60;75.50
60495;DHT22;46342;49.046;11.920;2022-12-24T04:53:28;11.60;75.50
60495;DHT22;46342;49.046;11.920;2022-12-24T04:55:54;11.50;75.40
60495;DHT22;46342;49.046;11.920;2022-12-24T04:58:19;11.50;75.50
60495;DHT22;46342;49.046;11.920;2022-12-24T05:00:45;11.50;75.50
60495;DHT22;46342;49.046;11.920;2022-12-24T05:03:10;11.50;75.50
60495;DHT22;46342;49.046;11.920;2022-12-24T05:05:36;11.40;75.50
60495;DHT22;46342;49.046;11.920;2022-12-24T05:08:01;11.50;75.60
60495;DHT22;46342;49.046;11.920;2022-12-24T05:10:27;11.50;75.60
60495;DHT22;46342;49.046;11.920;2022-12-24T05:12:52;11.40;75.50
60495;DHT22;46342;49.046;11.920;2022-12-24T05:15:18;11.50;75.70
60495;DHT22;46342;49.046;11.920;2022-12-24T05:17:44;11.60;75.90
60495;DHT22;46342;49.046;11.920;2022-12-24T05:20:09;11.40;75.60
60495;DHT22;46342;49.046;11.920;2022-12-24T05:22:35;11.40;75.60
60495;DHT22;46342;49.046;11.920;2022-12-24T05:25:19;11.40;75.60
60495;DHT22;46342;49.046;11.920;2022-12-24T05:28:03;11.40;75.60
60495;DHT22;46342;49.046;11.920;2022-12-24T05:30:29;11.40;75.60
60495;DHT22;46342;49.046;11.920;2022-12-24T05:32:54;11.40;75.60
60495;DHT22;46342;49.046;11.920;2022-12-24T05:35:20;11.40;75.60
60495;DHT22;46342;49.046;11.920;2022-12-24T05:37:45;11.40;75.60
60495;DHT22;46342;49.046;11.920;2022-12-24T05:40:11;11.40;75.60
60495;DHT22;46342;49.046;11.920;2022-12-24T05:42:37;11.40;75.50
60495;DHT22;46342;49.046;11.920;2022-12-24T05:45:03;11.40;75.60
60495;DHT22;46342;49.046;11.920;2022-12-24T05:47:29;11.40;75.60
60495;DHT22;46342;49.046;11.920;2022-12-24T05:49:54;11.40;75.50
60495;DHT22;46342;49.046;11.920;2022-12-24T05:52:20;11.40;75.50
60495;DHT22;46342;49.046;11.920;2022-12-24T05:54:45;11.40;75.40
60495;DHT22;46342;49.046;11.920;2022-12-24T05:57:11;11.40;75.50
60495;DHT22;46342;49.046;11.920;2022-12-24T05:59:36;11.50;75.50
60495;DHT22;46342;49.046;11.920;2022-12-24T06:02:02;11.40;75.40
60495;DHT22;46342;49.046;11.920;2022-12-24T06:04:27;11.40;75.40
60495;DHT22;46342;49.046;11.920;2022-12-24T06:06:53;11.40;75.40
60495;DHT22;46342;49.046;11.920;2022-12-24T06:09:19;11.40;75.40
60495;DHT22;46342;49.046;11.920;2022-12-24T06:11:44;11.30;75.30
60495;DHT22;46342;49.046;11.920;2022-12-24T06:14:10;11.40;75.40
60495;DHT22;46342;49.046;11.920;2022-12-24T06:16:35;11.30;75.20
60495;DHT22;46342;49.046;11.920;2022-12-24T06:19:01;11.40;75.30
60495;DHT22;46342;49.046;11.920;2022-12-24T06:21:26;11.30;75.20
60495;DHT22;46342;49.046;11.920;2022-12-24T06:23:52;11.30;75.20
60495;DHT22;46342;49.046;11.920;2022-12-24T06:26:19;11.30;76.00
60495;DHT22;46342;49.046;11.920;2022-12-24T06:28:46;11.30;75.20
60495;DHT22;46342;49.046;11.920;2022-12-24T06:31:14;11.30;75.10
60495;DHT22;46342;49.046;11.920;2022-12-24T06:33:40;11.30;75.00
60495;DHT22;46342;49.046;11.920;2022-12-24T06:36:17;11.30;75.10
60495;DHT22;46342;49.046;11.920;2022-12-24T06:38:43;11.30;74.90
60495;DHT22;46342;49.046;11.920;2022-12-24T06:41:09;11.30;75.00
60495;DHT22;46342;49.046;11.920;2022-12-24T06:43:34;11.30;75.00
60495;DHT22;46342;49.046;11.920;2022-12-24T06:46:01;11.30;75.00
60495;DHT22;46342;49.046;11.920;2022-12-24T06:48:27;11.30;75.00
60495;DHT22;46342;49.046;11.920;2022-12-24T06:50:52;11.30;75.00
60495;DHT22;46342;49.046;11.920;2022-12-24T06:53:18;11.30;75.00
60495;DHT22;46342;49.046;11.920;2022-12-24T06:55:44;11.30;75.00
60495;DHT22;46342;49.046;11.920;2022-12-24T06:58:09;11.30;75.00
60495;DHT22;46342;49.046;11.920;2022-12-24T07:00:35;11.30;75.00
60495;DHT22;46342;49.046;11.920;2022-12-24T07:03:01;11.30;75.00
60495;DHT22;46342;49.046;11.920;2022-12-24T07:05:27;11.30;75.00
60495;DHT22;46342;49.046;11.920;2022-12-24T07:07:52;11.30;75.00
60495;DHT22;46342;49.046;11.920;2022-12-24T07:10:19;11.30;75.00
60495;DHT22;46342;49.046;11.920;2022-12-24T07:12:45;11.30;75.00
60495;DHT22;46342;49.046;11.920;2022-12-24T07:15:12;11.30;76.00
60495;DHT22;46342;49.046;11.920;2022-12-24T07:17:37;11.30;75.10
60495;DHT22;46342;49.046;11.920;2022-12-24T07:20:04;11.20;75.00
60495;DHT22;46342;49.046;11.920;2022-12-24T07:22:30;11.20;75.00
60495;DHT22;46342;49.046;11.920;2022-12-24T07:24:55;11.20;75.10
60495;DHT22;46342;49.046;11.920;2022-12-24T07:27:21;11.20;75.10
60495;DHT22;46342;49.046;11.920;2022-12-24T07:29:47;11.20;75.10
60495;DHT22;46342;49.046;11.920;2022-12-24T07:32:12;11.20;75.20
60495;DHT22;46342;49.046;11.920;2022-12-24T07:34:38;11.20;75.30
60495;DHT22;46342;49.046;11.920;2022-12-24T07:37:04;11.20;75.30
60495;DHT22;46342;49.046;11.920;2022-12-24T07:39:30;11.20;75.40
60495;DHT22;46342;49.046;11.920;2022-12-24T07:41:55;11.20;75.50
60495;DHT22;46342;49.046;11.920;2022-12-24T07:44:21;11.30;75.60
60495;DHT22;46342;49.046;11.920;2022-12-24T07:46:47;11.30;75.70
60495;DHT22;46342;49.046;11.920;2022-12-24T07:49:12;11.30;75.80
60495;DHT22;46342;49.046;11.920;2022-12-24T07:51:38;11.30;75.80
60495;DHT22;46342;49.046;11.920;2022-12-24T07:54:03;11.30;75.80
60495;DHT22;46342;49.046;11.920;2022-12-24T07:56:30;11.30;75.80
60495;DHT22;46342;49.046;11.920;2022-12-24T07:58:56;11.30;75.90
60495;DHT22;46342;49.046;11.920;2022-12-24T08:01:21;11.30;76.00
60495;DHT22;46342;49.046;11.920;2022-12-24T08:03:47;11.40;76.20
60495;DHT22;46342;49.046;11.920;2022-12-24T08:06:15;11.50;76.30
60495;DHT22;46342;49.046;11.920;2022-12-24T08:08:41;11.40;76.20
60495;DHT22;46342;49.046;11.920;2022-12-24T08:11:06;11.40;76.00
60495;DHT22;46342;49.046;11.920;2022-12-24T08:13:32;11.40;76.10
60495;DHT22;46342;49.046;11.920;2022-12-24T08:15:58;11.40;76.20
60495;DHT22;46342;49.046;11.920;2022-12-24T08:18:24;11.40;76.20
60495;DHT22;46342;49.046;11.920;2022-12-24T08:20:50;11.40;76.20
60495;DHT22;46342;49.046;11.920;2022-12-24T08:23:16;11.50;76.50
60495;DHT22;46342;49.046;11.920;2022-12-24T08:25:46;11.50;76.50
60495;DHT22;46342;49.046;11.920;2022-12-24T08:28:13;11.50;76.60
60495;DHT22;46342;49.046;11.920;2022-12-24T08:30:39;11.50;76.60
60495;DHT22;46342;49.046;11.920;2022-12-24T08:33:05;11.50;76.50
60495;DHT22;46342;49.046;11.920;2022-12-24T08:35:30;11.50;76.40
60495;DHT22;46342;49.046;11.920;2022-12-24T08:37:56;11.60;76.50
60495;DHT22;46342;49.046;11.920;2022-12-24T08:40:22;11.60;76.50
60495;DHT22;46342;49.046;11.920;2022-12-24T08:42:47;11.60;76.50
60495;DHT22;46342;49.046;11.920;2022-12-24T08:45:13;11.60;76.50
60495;DHT22;46342;49.046;11.920;2022-12-24T08:47:39;11.60;76.40
60495;DHT22;46342;49.046;11.920;2022-12-24T08:50:05;11.60;76.30
60495;DHT22;46342;49.046;11.920;2022-12-24T08:52:31;11.70;76.30
60495;DHT22;46342;49.046;11.920;2022-12-24T08:54:57;11.70;76.40
60495;DHT22;46342;49.046;11.920;2022-12-24T08:57:23;11.70;76.30
60495;DHT22;46342;49.046;11.920;2022-12-24T08:59:48;11.70;76.20
60495;DHT22;46342;49.046;11.920;2022-12-24T09:02:14;11.80;76.30
60495;DHT22;46342;49.046;11.920;2022-12-24T09:04:40;11.70;76.10
60495;DHT22;46342;49.046;11.920;2022-12-24T09:07:09;11.70;76.10
60495;DHT22;46342;49.046;11.920;2022-12-24T09:09:35;11.70;76.00
60495;DHT22;46342;49.046;11.920;2022-12-24T09:12:03;11.70;76.00
60495;DHT22;46342;49.046;11.920;2022-12-24T09:14:29;11.70;76.00
60495;DHT22;46342;49.046;11.920;2022-12-24T09:16:54;11.80;75.80
60495;DHT22;46342;49.046;11.920;2022-12-24T09:19:20;11.70;75.70
60495;DHT22;46342;49.046;11.920;2022-12-24T09:21:45;11.70;75.80
60495;DHT22;46342;49.046;11.920;2022-12-24T09:24:11;11.70;75.80
60495;DHT22;46342;49.046;11.920;2022-12-24T09:26:38;11.70;75.80
60495;DHT22;46342;49.046;11.920;2022-12-24T09:29:05;11.70;75.80
60495;DHT22;46342;49.046;11.920;2022-12-24T09:31:32;11.70;75.80
60495;DHT22;46342;49.046;11.920;2022-12-24T09:33:57;11.70;75.80
60495;DHT22;46342;49.046;11.920;2022-12-24T09:36:23;11.70;75.90
60495;DHT22;46342;49.046;11.920;2022-12-24T09:38:49;11.70;75.80
60495;DHT22;46342;49.046;11.920;2022-12-24T09:41:41;11.80;75.90
60495;DHT22;46342;49.046;11.920;2022-12-24T09:47:23;11.80;75.50
60495;DHT22;46342;49.046;11.920;2022-12-24T09:49:52;11.80;75.90
60495;DHT22;46342;49.046;11.920;2022-12-24T09:52:45;11.80;75.80
60495;DHT22;46342;49.046;11.920;2022-12-24T09:55:43;11.90;75.50
60495;DHT22;46342;49.046;11.920;2022-12-24T09:58:18;11.90;75.50
60495;DHT22;46342;49.046;11.920;2022-12-24T10:00:44;11.90;75.70
60495;DHT22;46342;49.046;11.920;2022-12-24T10:03:16;11.90;75.80
60495;DHT22;46342;49.046;11.920;2022-12-24T10:05:44;12.00;75.80
60495;DHT22;46342;49.046;11.920;2022-12-24T10:08:19;12.00;76.10
60495;DHT22;46342;49.046;11.920;2022-12-24T10:10:53;12.00;75.80
60495;DHT22;46342;49.046;11.920;2022-12-24T10:13:56;12.00;75.90
60495;DHT22;46342;49.046;11.920;2022-12-24T10:19:53;12.20;75.70
60495;DHT22;46342;49.046;11.920;2022-12-24T10:22:35;12.20;75.50
60495;DHT22;46342;49.046;11.920;2022-12-24T10:25:37;12.20;75.80
60495;DHT22;46342;49.046;11.920;2022-12-24T10:28:14;12.30;75.50
60495;DHT22;46342;49.046;11.920;2022-12-24T10:30:40;12.30;75.60
60495;DHT22;46342;49.046;11.920;2022-12-24T10:33:19;12.30;75.90
60495;DHT22;46342;49.046;11.920;2022-12-24T10:35:51;12.40;75.50
60495;DHT22;46342;49.046;11.920;2022-12-24T10:38:18;12.30;75.70
60495;DHT22;46342;49.046;11.920;2022-12-24T10:40:46;12.40;76.10
60495;DHT22;46342;49.046;11.920;2022-12-24T10:43:22;12.50;76.00
60495;DHT22;46342;49.046;11.920;2022-12-24T10:45:52;12.40;75.60
60495;DHT22;46342;49.046;11.920;2022-12-24T10:48:28;12.50;76.00
60495;DHT22;46342;49.046;11.920;2022-12-24T10:51:19;12.60;75.60
60495;DHT22;46342;49.046;11.920;2022-12-24T10:53:51;12.60;75.80
60495;DHT22;46342;49.046;11.920;2022-12-24T10:56:20;12.60;76.20
60495;DHT22;46342;49.046;11.920;2022-12-24T10:58:53;12.70;76.40
60495;DHT22;46342;49.046;11.920;2022-12-24T11:01:20;12.70;75.80
60495;DHT22;46342;49.046;11.920;2022-12-24T11:04:06;12.80;76.10
60495;DHT22;46342;49.046;11.920;2022-12-24T11:07:04;12.80;76.10
60495;DHT22;46342;49.046;11.920;2022-12-24T11:09:35;12.90;75.70
60495;DHT22;46342;49.046;11.920;2022-12-24T11:12:05;12.90;75.60
60495;DHT22;46342;49.046;11.920;2022-12-24T11:14:36;12.90;75.60
60495;DHT22;46342;49.046;11.920;2022-12-24T11:17:03;13.10;75.50
60495;DHT22;46342;49.046;11.920;2022-12-24T11:19:38;13.00;75.60
60495;DHT22;46342;49.046;11.920;2022-12-24T11:22:25;13.10;75.20
60495;DHT22;46342;49.046;11.920;2022-12-24T11:25:05;13.10;74.90
60495;DHT22;46342;49.046;11.920;2022-12-24T11:27:41;13.10;74.80
60495;DHT22;46342;49.046;11.920;2022-12-24T11:30:29;13.20;75.20
60495;DHT22;46342;49.046;11.920;2022-12-24T11:35:29;13.30;74.80
60495;DHT22;46342;49.046;11.920;2022-12-24T11:40:24;13.30;74.70
60495;DHT22;46342;49.046;11.920;2022-12-24T11:42:58;13.40;75.40
60495;DHT22;46342;49.046;11.920;2022-12-24T11:45:29;13.40;74.40
60495;DHT22;46342;49.046;11.920;2022-12-24T11:47:55;13.50;74.40
60495;DHT22;46342;49.046;11.920;2022-12-24T11:50:25;13.50;74.90
60495;DHT22;46342;49.046;11.920;2022-12-24T11:55:40;13.60;74.00
60495;DHT22;46342;49.046;11.920;2022-12-24T11:58:41;13.60;73.40
60495;DHT22;46342;49.046;11.920;2022-12-24T12:01:22;13.70;73.10
60495;DHT22;46342;49.046;11.920;2022-12-24T12:04:21;13.70;73.20
60495;DHT22;46342;49.046;11.920;2022-12-24T12:06:55;13.70;71.80
60495;DHT22;46342;49.046;11.920;2022-12-24T12:09:36;13.70;72.90
60495;DHT22;46342;49.046;11.920;2022-12-24T12:14:42;13.80;72.00
60495;DHT22;46342;49.046;11.920;2022-12-24T12:17:35;13.80;73.10
60495;DHT22;46342;49.046;11.920;2022-12-24T12:23:15;13.80;71.70
60495;DHT22;46342;49.046;11.920;2022-12-24T12:28:42;13.80;71.40
60495;DHT22;46342;49.046;11.920;2022-12-24T12:36:07;13.80;71.40
60495;DHT22;46342;49.046;11.920;2022-12-24T12:38:34;13.70;72.70
60495;DHT22;46342;49.046;11.920;2022-12-24T12:44:25;13.70;70.50
60495;DHT22;46342;49.046;11.920;2022-12-24T12:50:06;13.60;70.90
60495;DHT22;46342;49.046;11.920;2022-12-24T12:57:44;13.60;70.80
60495;DHT22;46342;49.046;11.920;2022-12-24T13:00:12;13.60;71.80
60495;DHT22;46342;49.046;11.920;2022-12-24T13:11:13;13.60;71.10
60495;DHT22;46342;49.046;11.920;2022-12-24T13:22:28;13.60;70.20
60495;DHT22;46342;49.046;11.920;2022-12-24T13:24:55;13.60;71.80
60495;DHT22;46342;49.046;11.920;2022-12-24T13:27:29;13.60;71.70
60495;DHT22;46342;49.046;11.920;2022-12-24T13:30:00;13.60;71.30
60495;DHT22;46342;49.046;11.920;2022-12-24T13:35:02;13.80;70.80
60495;DHT22;46342;49.046;11.920;2022-12-24T13:37:35;13.60;71.40
60495;DHT22;46342;49.046;11.920;2022-12-24T13:53:43;13.60;70.80
60495;DHT22;46342;49.046;11.920;2022-12-24T13:58:42;13.60;71.10
60495;DHT22;46342;49.046;11.920;2022-12-24T14:01:10;13.60;70.90
60495;DHT22;46342;49.046;11.920;2022-12-24T14:08:52;13.50;69.60
60495;DHT22;46342;49.046;11.920;2022-12-24T14:11:24;13.50;70.30
60495;DHT22;46342;49.046;11.920;2022-12-24T14:13:53;13.50;70.50
60495;DHT22;46342;49.046;11.920;2022-12-24T14:21:41;13.40;69.50
60495;DHT22;46342;49.046;11.920;2022-12-24T14:24:21;13.40;70.20
60495;DHT22;46342;49.046;11.920;2022-12-24T14:26:58;13.40;69.50
60495;DHT22;46342;49.046;11.920;2022-12-24T14:29:30;13.30;70.00
60495;DHT22;46342;49.046;11.920;2022-12-24T14:31:58;13.30;70.40
60495;DHT22;46342;49.046;11.920;2022-12-24T14:34:24;13.20;70.10
60495;DHT22;46342;49.046;11.920;2022-12-24T14:36:52;13.20;71.30
60495;DHT22;46342;49.046;11.920;2022-12-24T14:42:01;13.10;69.50
60495;DHT22;46342;49.046;11.920;2022-12-24T14:56:12;13.00;70.40
60495;DHT22;46342;49.046;11.920;2022-12-24T14:58:39;12.90;69.80
60495;DHT22;46342;49.046;11.920;2022-12-24T15:01:21;12.90;69.50
60495;DHT22;46342;49.046;11.920;2022-12-24T15:06:40;12.90;69.70
60495;DHT22;46342;49.046;11.920;2022-12-24T15:11:46;12.80;70.90
60495;DHT22;46342;49.046;11.920;2022-12-24T15:14:13;12.80;71.00
60495;DHT22;46342;49.046;11.920;2022-12-24T15:16:39;12.70;70.50
60495;DHT22;46342;49.046;11.920;2022-12-24T15:19:10;12.70;70.60
60495;DHT22;46342;49.046;11.920;2022-12-24T15:21:38;12.70;70.50
60495;DHT22;46342;49.046;11.920;2022-12-24T15:24:29;12.70;70.60
60495;DHT22;46342;49.046;11.920;2022-12-24T15:27:11;12.70;70.00
60495;DHT22;46342;49.046;11.920;2022-12-24T15:29:43;12.60;70.50
60495;DHT22;46342;49.046;11.920;2022-12-24T15:32:11;12.60;70.30
60495;DHT22;46342;49.046;11.920;2022-12-24T15:34:40;12.60;70.40
60495;DHT22;46342;49.046;11.920;2022-12-24T15:37:22;12.60;70.40
60495;DHT22;46342;49.046;11.920;2022-12-24T15:39:54;12.50;70.20
60495;DHT22;46342;49.046;11.920;2022-12-24T15:42:20;12.50;70.20
60495;DHT22;46342;49.046;11.920;2022-12-24T15:44:58;12.50;70.50
60495;DHT22;46342;49.046;11.920;2022-12-24T15:47:32;12.50;70.20
60495;DHT22;46342;49.046;11.920;2022-12-24T15:50:49;12.40;70.20
60495;DHT22;46342;49.046;11.920;2022-12-24T15:52:49;12.30;70.30
60495;DHT22;46342;49.046;11.920;2022-12-24T15:55:33;12.30;70.40
60495;DHT22;46342;49.046;11.920;2022-12-24T15:58:00;12.30;70.10
60495;DHT22;46342;49.046;11.920;2022-12-24T16:00:27;12.20;70.40
60495;DHT22;46342;49.046;11.920;2022-12-24T16:03:10;12.20;70.40
60495;DHT22;46342;49.046;11.920;2022-12-24T16:05:37;12.10;70.00
60495;DHT22;46342;49.046;11.920;2022-12-24T16:10:36;12.10;70.40
60495;DHT22;46342;49.046;11.920;2022-12-24T16:13:13;12.00;70.30
60495;DHT22;46342;49.046;11.920;2022-12-24T16:18:25;11.90;71.10
60495;DHT22;46342;49.046;11.920;2022-12-24T16:20:53;11.90;70.20
60495;DHT22;46342;49.046;11.920;2022-12-24T16:23:24;11.80;70.30
60495;DHT22;46342;49.046;11.920;2022-12-24T16:25:51;11.80;70.30
60495;DHT22;46342;49.046;11.920;2022-12-24T16:28:17;11.70;70.30
60495;DHT22;46342;49.046;11.920;2022-12-24T16:30:44;11.70;70.40
60495;DHT22;46342;49.046;11.920;2022-12-24T16:33:20;11.70;70.40
60495;DHT22;46342;49.046;11.920;2022-12-24T16:35:46;11.70;70.30
60495;DHT22;46342;49.046;11.920;2022-12-24T16:38:12;11.60;70.50
60495;DHT22;46342;49.046;11.920;2022-12-24T16:40:39;11.60;71.50
60495;DHT22;46342;49.046;11.920;2022-12-24T16:43:04;11.50;70.50
60495;DHT22;46342;49.046;11.920;2022-12-24T16:45:49;11.50;70.50
60495;DHT22;46342;49.046;11.920;2022-12-24T16:48:23;11.50;71.50
60495;DHT22;46342;49.046;11.920;2022-12-24T16:50:50;11.50;70.40
60495;DHT22;46342;49.046;11.920;2022-12-24T16:53:16;11.40;70.50
60495;DHT22;46342;49.046;11.920;2022-12-24T16:55:43;11.40;70.60
60495;DHT22;46342;49.046;11.920;2022-12-24T16:58:14;11.40;70.60
60495;DHT22;46342;49.046;11.920;2022-12-24T17:00:41;11.40;70.60
60495;DHT22;46342;49.046;11.920;2022-12-24T17:03:07;11.30;70.60
60495;DHT22;46342;49.046;11.920;2022-12-24T17:05:36;11.30;70.70
60495;DHT22;46342;49.046;11.920;2022-12-24T17:08:02;11.20;70.70
60495;DHT22;46342;49.046;11.920;2022-12-24T17:10:28;11.20;70.80
60495;DHT22;46342;49.046;11.920;2022-12-24T17:12:55;11.20;70.90
60495;DHT22;46342;49.046;11.920;2022-12-24T17:15:20;11.20;70.90
60495;DHT22;46342;49.046;11.920;2022-12-24T17:17:46;11.10;70.80
60495;DHT22;46342;49.046;11.920;2022-12-24T17:20:12;11.10;70.90
60495;DHT22;46342;49.046;11.920;2022-12-24T17:22:38;11.10;71.00
60495;DHT22;46342;49.046;11.920;2022-12-24T17:25:05;11.10;71.10
60495;DHT22;46342;49.046;11.920;2022-12-24T17:27:31;11.10;71.10
60495;DHT22;46342;49.046;11.920;2022-12-24T17:29:56;11.00;71.20
60495;DHT22;46342;49.046;11.920;2022-12-24T17:32:23;11.00;71.30
60495;DHT22;46342;49.046;11.920;2022-12-24T17:34:49;11.00;71.40